sensor_id;sensor_type;location;lat;lon;timestamp;temperature;humidity
26164;DHT22;13914;48.178;11.716;2022-11-11T00:00:22;6.30;96.40
26164;DHT22;13914;48.178;11.716;2022-11-11T00:02:48;6.30;96.40
26164;DHT22;13914;48.178;11.716;2022-11-11T00:05:14;6.30;96.40
26164;DHT22;13914;48.178;11.716;2022-11-11T00:07:41;6.30;96.40
26164;DHT22;13914;48.178;11.716;2022-11-11T00:10:07;6.30;96.40
26164;DHT22;13914;48.178;11.716;2022-11-11T00:12:33;6.20;96.40
26164;DHT22;13914;48.178;11.716;2022-11-11T00:15:01;6.20;96.40
26164;DHT22;13914;48.178;11.716;2022-11-11T00:17:27;6.20;96.40
26164;DHT22;13914;48.178;11.716;2022-11-11T00:20:22;6.20;96.40
26164;DHT22;13914;48.178;11.716;2022-11-11T00:23:07;6.20;96.40
26164;DHT22;13914;48.178;11.716;2022-11-11T00:26:08;6.20;96.50
26164;DHT22;13914;48.178;11.716;2022-11-11T00:28:34;6.10;96.50
26164;DHT22;13914;48.178;11.716;2022-11-11T00:31:00;6.10;96.50
26164;DHT22;13914;48.178;11.716;2022-11-11T00:33:30;6.10;96.40
26164;DHT22;13914;48.178;11.716;2022-11-11T00:35:56;6.10;96.50
26164;DHT22;13914;48.178;11.716;2022-11-11T00:38:22;6.10;96.50
26164;DHT22;13914;48.178;11.716;2022-11-11T00:41:06;6.00;96.40
26164;DHT22;13914;48.178;11.716;2022-11-11T00:43:31;6.00;96.40
26164;DHT22;13914;48.178;11.716;2022-11-11T00:45:57;6.00;96.50
26164;DHT22;13914;48.178;11.716;2022-11-11T00:48:43;6.00;96.40
26164;DHT22;13914;48.178;11.716;2022-11-11T00:51:28;5.90;96.40
26164;DHT22;13914;48.178;11.716;2022-11-11T00:53:53;5.90;96.40
26164;DHT22;13914;48.178;11.716;2022-11-11T00:56:19;5.90;96.50
26164;DHT22;13914;48.178;11.716;2022-11-11T00:58:45;5.90;96.50
26164;DHT22;13914;48.178;11.716;2022-11-11T01:01:11;5.80;96.40
26164;DHT22;13914;48.178;11.716;2022-11-11T01:03:37;5.80;96.40
26164;DHT22;13914;48.178;11.716;2022-11-11T01:06:03;5.80;96.50
26164;DHT22;13914;48.178;11.716;2022-11-11T01:08:29;5.80;96.40
26164;DHT22;13914;48.178;11.716;2022-11-11T01:10:55;5.80;96.50
26164;DHT22;13914;48.178;11.716;2022-11-11T01:13:23;5.70;96.50
26164;DHT22;13914;48.178;11.716;2022-11-11T01:15:51;5.70;96.50
26164;DHT22;13914;48.178;11.716;2022-11-11T01:18:19;5.70;96.50
26164;DHT22;13914;48.178;11.716;2022-11-11T01:20:46;5.70;96.50
26164;DHT22;13914;48.178;11.716;2022-11-11T01:23:13;5.70;96.60
26164;DHT22;13914;48.178;11.716;2022-11-11T01:25:39;5.60;96.50
26164;DHT22;13914;48.178;11.716;2022-11-11T01:28:06;5.60;96.50
26164;DHT22;13914;48.178;11.716;2022-11-11T01:30:33;5.60;96.90
26164;DHT22;13914;48.178;11.716;2022-11-11T01:32:59;5.60;96.50
26164;DHT22;13914;48.178;11.716;2022-11-11T01:35:25;5.60;96.60
26164;DHT22;13914;48.178;11.716;2022-11-11T01:37:51;5.60;96.60
26164;DHT22;13914;48.178;11.716;2022-11-11T01:40:17;5.60;96.60
26164;DHT22;13914;48.178;11.716;2022-11-11T01:48:39;5.50;96.50
26164;DHT22;13914;48.178;11.716;2022-11-11T01:51:30;5.50;96.60
26164;DHT22;13914;48.178;11.716;2022-11-11T01:54:01;5.50;96.50
26164;DHT22;13914;48.178;11.716;2022-11-11T01:56:31;5.50;96.60
26164;DHT22;13914;48.178;11.716;2022-11-11T01:58:59;5.50;96.60
26164;DHT22;13914;48.178;11.716;2022-11-11T02:01:26;5.40;96.60
26164;DHT22;13914;48.178;11.716;2022-11-11T02:03:53;5.40;96.50
26164;DHT22;13914;48.178;11.716;2022-11-11T02:06:38;5.40;96.50
26164;DHT22;13914;48.178;11.716;2022-11-11T02:09:04;5.40;96.50
26164;DHT22;13914;48.178;11.716;2022-11-11T02:11:30;5.40;96.50
26164;DHT22;13914;48.178;11.716;2022-11-11T02:14:16;5.30;96.50
26164;DHT22;13914;48.178;11.716;2022-11-11T02:17:01;5.30;96.50
26164;DHT22;13914;48.178;11.716;2022-11-11T02:22:22;5.30;96.60
26164;DHT22;13914;48.178;11.716;2022-11-11T02:24:52;5.20;96.60
26164;DHT22;13914;48.178;11.716;2022-11-11T02:27:18;5.30;96.60
26164;DHT22;13914;48.178;11.716;2022-11-11T02:29:45;5.20;96.60
26164;DHT22;13914;48.178;11.716;2022-11-11T02:32:13;5.20;96.60
26164;DHT22;13914;48.178;11.716;2022-11-11T02:34:39;5.20;96.50
26164;DHT22;13914;48.178;11.716;2022-11-11T02:37:05;5.20;96.60
26164;DHT22;13914;48.178;11.716;2022-11-11T02:39:33;5.10;96.50
26164;DHT22;13914;48.178;11.716;2022-11-11T02:41:59;5.10;96.50
26164;DHT22;13914;48.178;11.716;2022-11-11T02:44:29;5.20;96.50
26164;DHT22;13914;48.178;11.716;2022-11-11T02:46:55;5.10;96.50
26164;DHT22;13914;48.178;11.716;2022-11-11T02:49:20;5.10;96.60
26164;DHT22;13914;48.178;11.716;2022-11-11T02:51:46;5.10;96.60
26164;DHT22;13914;48.178;11.716;2022-11-11T02:54:12;5.00;96.50
26164;DHT22;13914;48.178;11.716;2022-11-11T02:56:38;5.10;96.60
26164;DHT22;13914;48.178;11.716;2022-11-11T02:59:22;5.00;96.50
26164;DHT22;13914;48.178;11.716;2022-11-11T03:01:48;5.00;96.50
26164;DHT22;13914;48.178;11.716;2022-11-11T03:04:13;5.00;96.50
26164;DHT22;13914;48.178;11.716;2022-11-11T03:06:39;5.00;96.50
26164;DHT22;13914;48.178;11.716;2022-11-11T03:09:05;5.00;96.50
26164;DHT22;13914;48.178;11.716;2022-11-11T03:11:31;4.90;96.60
26164;DHT22;13914;48.178;11.716;2022-11-11T03:13:58;4.90;96.60
26164;DHT22;13914;48.178;11.716;2022-11-11T03:16:24;4.90;96.60
26164;DHT22;13914;48.178;11.716;2022-11-11T03:19:09;4.90;96.60
26164;DHT22;13914;48.178;11.716;2022-11-11T03:21:35;4.90;96.50
26164;DHT22;13914;48.178;11.716;2022-11-11T03:24:01;4.80;96.50
26164;DHT22;13914;48.178;11.716;2022-11-11T03:26:27;4.80;96.50
26164;DHT22;13914;48.178;11.716;2022-11-11T03:28:52;4.80;96.50
26164;DHT22;13914;48.178;11.716;2022-11-11T03:31:18;4.80;96.60
26164;DHT22;13914;48.178;11.716;2022-11-11T03:33:44;4.80;96.60
26164;DHT22;13914;48.178;11.716;2022-11-11T03:36:09;4.80;96.60
26164;DHT22;13914;48.178;11.716;2022-11-11T03:38:35;4.70;96.60
26164;DHT22;13914;48.178;11.716;2022-11-11T03:41:01;4.80;96.70
26164;DHT22;13914;48.178;11.716;2022-11-11T03:43:27;4.70;96.60
26164;DHT22;13914;48.178;11.716;2022-11-11T03:45:55;4.70;96.60
26164;DHT22;13914;48.178;11.716;2022-11-11T03:48:22;4.70;96.60
26164;DHT22;13914;48.178;11.716;2022-11-11T03:50:48;4.70;96.60
26164;DHT22;13914;48.178;11.716;2022-11-11T03:53:15;4.60;96.60
26164;DHT22;13914;48.178;11.716;2022-11-11T03:55:42;4.60;96.70
26164;DHT22;13914;48.178;11.716;2022-11-11T03:58:07;4.60;96.70
26164;DHT22;13914;48.178;11.716;2022-11-11T04:00:34;4.60;96.70
26164;DHT22;13914;48.178;11.716;2022-11-11T04:03:07;4.60;96.70
26164;DHT22;13914;48.178;11.716;2022-11-11T04:05:51;4.60;96.70
26164;DHT22;13914;48.178;11.716;2022-11-11T04:08:36;4.50;96.70
26164;DHT22;13914;48.178;11.716;2022-11-11T04:11:30;4.60;97.10
26164;DHT22;13914;48.178;11.716;2022-11-11T04:13:58;4.50;96.70
26164;DHT22;13914;48.178;11.716;2022-11-11T04:16:44;4.50;96.70
26164;DHT22;13914;48.178;11.716;2022-11-11T04:19:10;4.50;96.70
26164;DHT22;13914;48.178;11.716;2022-11-11T04:21:54;4.40;96.70
26164;DHT22;13914;48.178;11.716;2022-11-11T04:24:20;4.50;96.70
26164;DHT22;13914;48.178;11.716;2022-11-11T04:27:08;4.50;96.70
26164;DHT22;13914;48.178;11.716;2022-11-11T04:29:38;4.40;96.70
26164;DHT22;13914;48.178;11.716;2022-11-11T04:32:05;4.40;96.70
26164;DHT22;13914;48.178;11.716;2022-11-11T04:34:50;4.40;96.60
26164;DHT22;13914;48.178;11.716;2022-11-11T04:37:18;4.40;96.70
26164;DHT22;13914;48.178;11.716;2022-11-11T04:39:44;4.40;96.70
26164;DHT22;13914;48.178;11.716;2022-11-11T04:42:29;4.40;97.10
26164;DHT22;13914;48.178;11.716;2022-11-11T04:44:56;4.40;97.10
26164;DHT22;13914;48.178;11.716;2022-11-11T04:48:00;4.30;96.70
26164;DHT22;13914;48.178;11.716;2022-11-11T04:50:29;4.30;96.70
26164;DHT22;13914;48.178;11.716;2022-11-11T04:52:57;4.30;96.70
26164;DHT22;13914;48.178;11.716;2022-11-11T04:55:23;4.30;96.80
26164;DHT22;13914;48.178;11.716;2022-11-11T04:58:08;4.30;96.70
26164;DHT22;13914;48.178;11.716;2022-11-11T05:00:34;4.30;96.70
26164;DHT22;13914;48.178;11.716;2022-11-11T05:03:00;4.20;96.70
26164;DHT22;13914;48.178;11.716;2022-11-11T05:05:42;4.20;96.80
26164;DHT22;13914;48.178;11.716;2022-11-11T05:08:29;4.20;96.70
26164;DHT22;13914;48.178;11.716;2022-11-11T05:11:14;4.20;96.70
26164;DHT22;13914;48.178;11.716;2022-11-11T05:13:40;4.20;96.70
26164;DHT22;13914;48.178;11.716;2022-11-11T05:16:26;4.20;96.60
26164;DHT22;13914;48.178;11.716;2022-11-11T05:19:19;4.20;96.70
26164;DHT22;13914;48.178;11.716;2022-11-11T05:22:07;4.10;96.70
26164;DHT22;13914;48.178;11.716;2022-11-11T05:24:36;4.10;96.70
26164;DHT22;13914;48.178;11.716;2022-11-11T05:27:20;4.10;96.70
26164;DHT22;13914;48.178;11.716;2022-11-11T05:29:46;4.10;96.80
26164;DHT22;13914;48.178;11.716;2022-11-11T05:32:16;4.10;96.70
26164;DHT22;13914;48.178;11.716;2022-11-11T05:34:42;4.10;96.80
26164;DHT22;13914;48.178;11.716;2022-11-11T05:37:09;4.10;96.70
26164;DHT22;13914;48.178;11.716;2022-11-11T05:39:34;4.10;96.70
26164;DHT22;13914;48.178;11.716;2022-11-11T05:42:00;4.00;96.70
26164;DHT22;13914;48.178;11.716;2022-11-11T05:44:25;4.00;96.70
26164;DHT22;13914;48.178;11.716;2022-11-11T05:46:51;4.00;96.80
26164;DHT22;13914;48.178;11.716;2022-11-11T05:49:17;4.00;96.80
26164;DHT22;13914;48.178;11.716;2022-11-11T05:51:43;4.00;96.70
26164;DHT22;13914;48.178;11.716;2022-11-11T05:54:09;4.00;96.80
26164;DHT22;13914;48.178;11.716;2022-11-11T05:56:35;4.00;96.80
26164;DHT22;13914;48.178;11.716;2022-11-11T05:59:01;3.90;96.60
26164;DHT22;13914;48.178;11.716;2022-11-11T06:01:27;3.90;96.60
26164;DHT22;13914;48.178;11.716;2022-11-11T06:03:53;3.90;96.70
26164;DHT22;13914;48.178;11.716;2022-11-11T06:06:18;4.00;96.80
26164;DHT22;13914;48.178;11.716;2022-11-11T06:08:44;3.90;96.70
26164;DHT22;13914;48.178;11.716;2022-11-11T06:11:10;3.90;96.70
26164;DHT22;13914;48.178;11.716;2022-11-11T06:13:36;3.90;96.70
26164;DHT22;13914;48.178;11.716;2022-11-11T06:16:01;3.90;96.70
26164;DHT22;13914;48.178;11.716;2022-11-11T06:18:28;3.90;96.70
26164;DHT22;13914;48.178;11.716;2022-11-11T06:20:54;3.90;96.80
26164;DHT22;13914;48.178;11.716;2022-11-11T06:23:21;3.90;96.80
26164;DHT22;13914;48.178;11.716;2022-11-11T06:25:47;3.90;96.70
26164;DHT22;13914;48.178;11.716;2022-11-11T06:28:31;3.80;96.80
26164;DHT22;13914;48.178;11.716;2022-11-11T06:30:57;3.80;96.80
26164;DHT22;13914;48.178;11.716;2022-11-11T06:33:23;3.80;96.70
26164;DHT22;13914;48.178;11.716;2022-11-11T06:35:48;3.80;96.80
26164;DHT22;13914;48.178;11.716;2022-11-11T06:38:15;3.80;96.80
26164;DHT22;13914;48.178;11.716;2022-11-11T06:40:41;3.80;96.90
26164;DHT22;13914;48.178;11.716;2022-11-11T06:43:07;3.80;96.80
26164;DHT22;13914;48.178;11.716;2022-11-11T06:45:33;3.80;96.80
26164;DHT22;13914;48.178;11.716;2022-11-11T06:48:00;3.80;97.20
26164;DHT22;13914;48.178;11.716;2022-11-11T06:50:26;3.80;96.80
26164;DHT22;13914;48.178;11.716;2022-11-11T06:52:53;3.80;96.80
26164;DHT22;13914;48.178;11.716;2022-11-11T06:55:19;3.80;96.80
26164;DHT22;13914;48.178;11.716;2022-11-11T06:57:45;3.80;96.80
26164;DHT22;13914;48.178;11.716;2022-11-11T07:00:11;3.80;96.80
26164;DHT22;13914;48.178;11.716;2022-11-11T07:02:37;3.80;96.90
26164;DHT22;13914;48.178;11.716;2022-11-11T07:05:03;3.80;96.90
26164;DHT22;13914;48.178;11.716;2022-11-11T07:07:29;3.80;97.00
26164;DHT22;13914;48.178;11.716;2022-11-11T07:09:54;3.80;96.90
26164;DHT22;13914;48.178;11.716;2022-11-11T07:12:21;3.80;97.10
26164;DHT22;13914;48.178;11.716;2022-11-11T07:14:47;3.80;97.20
26164;DHT22;13914;48.178;11.716;2022-11-11T07:17:12;3.80;97.30
26164;DHT22;13914;48.178;11.716;2022-11-11T07:19:38;3.80;97.00
26164;DHT22;13914;48.178;11.716;2022-11-11T07:22:04;3.90;97.00
26164;DHT22;13914;48.178;11.716;2022-11-11T07:24:30;3.90;97.00
26164;DHT22;13914;48.178;11.716;2022-11-11T07:26:55;3.90;96.90
26164;DHT22;13914;48.178;11.716;2022-11-11T07:29:21;3.90;96.90
26164;DHT22;13914;48.178;11.716;2022-11-11T07:31:47;3.90;96.90
26164;DHT22;13914;48.178;11.716;2022-11-11T07:34:12;4.00;96.80
26164;DHT22;13914;48.178;11.716;2022-11-11T07:36:38;4.00;96.80
26164;DHT22;13914;48.178;11.716;2022-11-11T07:39:04;4.00;96.80
26164;DHT22;13914;48.178;11.716;2022-11-11T07:41:29;4.00;96.90
26164;DHT22;13914;48.178;11.716;2022-11-11T07:43:55;4.10;96.80
26164;DHT22;13914;48.178;11.716;2022-11-11T07:46:21;4.10;96.80
26164;DHT22;13914;48.178;11.716;2022-11-11T07:48:47;4.10;96.80
26164;DHT22;13914;48.178;11.716;2022-11-11T07:51:13;4.20;96.80
26164;DHT22;13914;48.178;11.716;2022-11-11T07:53:39;4.20;96.70
26164;DHT22;13914;48.178;11.716;2022-11-11T07:56:04;4.20;96.70
26164;DHT22;13914;48.178;11.716;2022-11-11T07:58:30;4.20;96.80
26164;DHT22;13914;48.178;11.716;2022-11-11T08:00:58;4.30;96.80
26164;DHT22;13914;48.178;11.716;2022-11-11T08:03:24;4.30;96.90
26164;DHT22;13914;48.178;11.716;2022-11-11T08:05:50;4.30;97.00
26164;DHT22;13914;48.178;11.716;2022-11-11T08:08:16;4.40;97.10
26164;DHT22;13914;48.178;11.716;2022-11-11T08:10:41;4.40;97.10
26164;DHT22;13914;48.178;11.716;2022-11-11T08:13:08;4.50;97.30
26164;DHT22;13914;48.178;11.716;2022-11-11T08:15:54;4.50;97.20
26164;DHT22;13914;48.178;11.716;2022-11-11T08:18:20;4.60;97.20
26164;DHT22;13914;48.178;11.716;2022-11-11T08:20:45;4.60;97.20
26164;DHT22;13914;48.178;11.716;2022-11-11T08:23:11;4.70;97.30
26164;DHT22;13914;48.178;11.716;2022-11-11T08:25:38;4.70;97.30
26164;DHT22;13914;48.178;11.716;2022-11-11T08:28:05;4.80;97.30
26164;DHT22;13914;48.178;11.716;2022-11-11T08:30:31;4.80;97.30
26164;DHT22;13914;48.178;11.716;2022-11-11T08:32:58;4.80;97.20
26164;DHT22;13914;48.178;11.716;2022-11-11T08:35:28;4.90;97.30
26164;DHT22;13914;48.178;11.716;2022-11-11T08:37:54;4.90;97.20
26164;DHT22;13914;48.178;11.716;2022-11-11T08:40:20;5.00;97.20
26164;DHT22;13914;48.178;11.716;2022-11-11T08:42:46;5.10;97.20
26164;DHT22;13914;48.178;11.716;2022-11-11T08:45:12;5.10;97.10
26164;DHT22;13914;48.178;11.716;2022-11-11T08:47:38;5.20;97.10
26164;DHT22;13914;48.178;11.716;2022-11-11T08:50:04;5.20;97.10
26164;DHT22;13914;48.178;11.716;2022-11-11T08:52:30;5.30;97.20
26164;DHT22;13914;48.178;11.716;2022-11-11T08:54:56;5.40;97.20
26164;DHT22;13914;48.178;11.716;2022-11-11T08:57:22;5.50;97.20
26164;DHT22;13914;48.178;11.716;2022-11-11T08:59:47;5.50;97.10
26164;DHT22;13914;48.178;11.716;2022-11-11T09:02:13;5.60;97.20
26164;DHT22;13914;48.178;11.716;2022-11-11T09:04:39;5.60;97.20
26164;DHT22;13914;48.178;11.716;2022-11-11T09:07:06;5.80;97.10
26164;DHT22;13914;48.178;11.716;2022-11-11T09:09:32;5.80;97.10
26164;DHT22;13914;48.178;11.716;2022-11-11T09:11:58;5.90;97.40
26164;DHT22;13914;48.178;11.716;2022-11-11T09:14:24;6.00;97.10
26164;DHT22;13914;48.178;11.716;2022-11-11T09:16:49;6.10;97.10
26164;DHT22;13914;48.178;11.716;2022-11-11T09:19:18;6.20;97.20
26164;DHT22;13914;48.178;11.716;2022-11-11T09:21:44;6.30;97.20
26164;DHT22;13914;48.178;11.716;2022-11-11T09:24:09;6.40;97.10
26164;DHT22;13914;48.178;11.716;2022-11-11T09:26:35;6.40;97.20
26164;DHT22;13914;48.178;11.716;2022-11-11T09:29:01;6.50;97.20
26164;DHT22;13914;48.178;11.716;2022-11-11T09:31:26;6.60;97.50
26164;DHT22;13914;48.178;11.716;2022-11-11T09:33:52;6.70;97.40
26164;DHT22;13914;48.178;11.716;2022-11-11T09:36:18;6.80;97.20
26164;DHT22;13914;48.178;11.716;2022-11-11T09:38:45;6.90;97.10
26164;DHT22;13914;48.178;11.716;2022-11-11T09:41:31;6.90;96.90
26164;DHT22;13914;48.178;11.716;2022-11-11T09:44:08;7.00;96.90
26164;DHT22;13914;48.178;11.716;2022-11-11T09:47:02;7.10;97.10
26164;DHT22;13914;48.178;11.716;2022-11-11T09:52:17;7.30;96.80
26164;DHT22;13914;48.178;11.716;2022-11-11T09:54:54;7.40;97.00
26164;DHT22;13914;48.178;11.716;2022-11-11T09:59:58;7.60;96.90
26164;DHT22;13914;48.178;11.716;2022-11-11T10:05:54;7.70;96.80
26164;DHT22;13914;48.178;11.716;2022-11-11T10:08:03;7.80;96.70
26164;DHT22;13914;48.178;11.716;2022-11-11T10:10:48;7.90;96.90
26164;DHT22;13914;48.178;11.716;2022-11-11T10:13:15;8.00;96.70
26164;DHT22;13914;48.178;11.716;2022-11-11T10:20:56;8.20;96.60
26164;DHT22;13914;48.178;11.716;2022-11-11T10:23:28;8.30;96.80
26164;DHT22;13914;48.178;11.716;2022-11-11T10:25:57;8.40;96.90
26164;DHT22;13914;48.178;11.716;2022-11-11T10:28:27;8.50;96.70
26164;DHT22;13914;48.178;11.716;2022-11-11T10:30:56;8.60;96.80
26164;DHT22;13914;48.178;11.716;2022-11-11T10:33:26;8.70;97.10
26164;DHT22;13914;48.178;11.716;2022-11-11T10:35:53;8.80;96.90
26164;DHT22;13914;48.178;11.716;2022-11-11T10:40:53;8.90;96.70
26164;DHT22;13914;48.178;11.716;2022-11-11T10:49:14;9.20;96.70
26164;DHT22;13914;48.178;11.716;2022-11-11T10:51:53;9.30;96.90
26164;DHT22;13914;48.178;11.716;2022-11-11T10:54:32;9.40;96.90
26164;DHT22;13914;48.178;11.716;2022-11-11T10:57:02;9.60;96.80
26164;DHT22;13914;48.178;11.716;2022-11-11T11:00:12;9.70;96.80
26164;DHT22;13914;48.178;11.716;2022-11-11T11:02:39;9.70;96.50
26164;DHT22;13914;48.178;11.716;2022-11-11T11:07:52;10.00;96.80
26164;DHT22;13914;48.178;11.716;2022-11-11T11:10:23;10.00;96.80
26164;DHT22;13914;48.178;11.716;2022-11-11T11:13:02;10.10;96.80
26164;DHT22;13914;48.178;11.716;2022-11-11T11:15:32;10.20;96.70
26164;DHT22;13914;48.178;11.716;2022-11-11T11:18:05;10.30;96.70
26164;DHT22;13914;48.178;11.716;2022-11-11T11:20:33;10.30;96.60
26164;DHT22;13914;48.178;11.716;2022-11-11T11:22:58;10.40;96.60
26164;DHT22;13914;48.178;11.716;2022-11-11T11:25:26;10.40;96.60
26164;DHT22;13914;48.178;11.716;2022-11-11T11:28:03;10.50;96.40
26164;DHT22;13914;48.178;11.716;2022-11-11T11:30:33;10.60;96.30
26164;DHT22;13914;48.178;11.716;2022-11-11T11:33:03;10.70;96.20
26164;DHT22;13914;48.178;11.716;2022-11-11T11:38:11;10.80;96.00
26164;DHT22;13914;48.178;11.716;2022-11-11T11:40:48;10.90;96.30
26164;DHT22;13914;48.178;11.716;2022-11-11T11:46:28;11.00;95.90
26164;DHT22;13914;48.178;11.716;2022-11-11T11:49:09;11.00;95.90
26164;DHT22;13914;48.178;11.716;2022-11-11T11:51:50;11.10;95.90
26164;DHT22;13914;48.178;11.716;2022-11-11T11:54:35;11.20;95.90
26164;DHT22;13914;48.178;11.716;2022-11-11T11:57:22;11.20;95.90
26164;DHT22;13914;48.178;11.716;2022-11-11T12:16:54;11.60;95.60
26164;DHT22;13914;48.178;11.716;2022-11-11T12:19:34;11.60;95.40
26164;DHT22;13914;48.178;11.716;2022-11-11T12:24:59;11.70;95.80
26164;DHT22;13914;48.178;11.716;2022-11-11T12:30:18;11.80;95.60
26164;DHT22;13914;48.178;11.716;2022-11-11T12:35:32;11.90;95.20
26164;DHT22;13914;48.178;11.716;2022-11-11T12:49:04;12.20;94.90
26164;DHT22;13914;48.178;11.716;2022-11-11T12:51:53;12.20;94.40
26164;DHT22;13914;48.178;11.716;2022-11-11T12:57:20;12.40;94.60
26164;DHT22;13914;48.178;11.716;2022-11-11T13:05:18;12.50;94.70
26164;DHT22;13914;48.178;11.716;2022-11-11T13:07:56;12.60;94.70
26164;DHT22;13914;48.178;11.716;2022-11-11T13:16:01;12.70;94.80
26164;DHT22;13914;48.178;11.716;2022-11-11T13:18:28;12.80;94.80
26164;DHT22;13914;48.178;11.716;2022-11-11T13:21:03;12.80;94.90
26164;DHT22;13914;48.178;11.716;2022-11-11T13:23:32;12.80;95.30
26164;DHT22;13914;48.178;11.716;2022-11-11T13:25:59;12.80;95.10
26164;DHT22;13914;48.178;11.716;2022-11-11T13:28:32;12.80;95.00
26164;DHT22;13914;48.178;11.716;2022-11-11T13:31:20;12.80;95.20
26164;DHT22;13914;48.178;11.716;2022-11-11T13:33:55;12.80;95.20
26164;DHT22;13914;48.178;11.716;2022-11-11T13:36:24;12.80;95.50
26164;DHT22;13914;48.178;11.716;2022-11-11T13:38:56;12.90;95.50
26164;DHT22;13914;48.178;11.716;2022-11-11T13:44:05;12.80;95.30
26164;DHT22;13914;48.178;11.716;2022-11-11T13:46:33;12.80;95.50
26164;DHT22;13914;48.178;11.716;2022-11-11T13:49:02;12.80;95.40
26164;DHT22;13914;48.178;11.716;2022-11-11T13:51:40;12.80;95.50
26164;DHT22;13914;48.178;11.716;2022-11-11T13:54:29;12.80;95.50
26164;DHT22;13914;48.178;11.716;2022-11-11T13:57:19;12.80;95.30
26164;DHT22;13914;48.178;11.716;2022-11-11T14:00:05;12.80;95.50
26164;DHT22;13914;48.178;11.716;2022-11-11T14:03:00;12.70;95.30
26164;DHT22;13914;48.178;11.716;2022-11-11T14:05:44;12.70;95.40
26164;DHT22;13914;48.178;11.716;2022-11-11T14:08:20;12.70;95.50
26164;DHT22;13914;48.178;11.716;2022-11-11T14:13:50;12.70;95.60
26164;DHT22;13914;48.178;11.716;2022-11-11T14:19:26;12.70;95.70
26164;DHT22;13914;48.178;11.716;2022-11-11T14:21:53;12.70;95.60
26164;DHT22;13914;48.178;11.716;2022-11-11T14:29:33;12.70;95.70
26164;DHT22;13914;48.178;11.716;2022-11-11T14:40:45;12.70;95.80
26164;DHT22;13914;48.178;11.716;2022-11-11T14:46:03;12.70;95.90
26164;DHT22;13914;48.178;11.716;2022-11-11T14:48:49;12.70;95.80
26164;DHT22;13914;48.178;11.716;2022-11-11T14:51:39;12.70;95.70
26164;DHT22;13914;48.178;11.716;2022-11-11T14:54:14;12.70;95.70
26164;DHT22;13914;48.178;11.716;2022-11-11T14:56:42;12.60;95.70
26164;DHT22;13914;48.178;11.716;2022-11-11T14:59:08;12.60;95.70
26164;DHT22;13914;48.178;11.716;2022-11-11T15:01:37;12.60;95.80
26164;DHT22;13914;48.178;11.716;2022-11-11T15:04:03;12.50;95.70
26164;DHT22;13914;48.178;11.716;2022-11-11T15:14:35;12.40;95.80
26164;DHT22;13914;48.178;11.716;2022-11-11T15:17:27;12.40;95.80
26164;DHT22;13914;48.178;11.716;2022-11-11T15:23:00;12.30;95.80
26164;DHT22;13914;48.178;11.716;2022-11-11T15:25:43;12.30;95.70
26164;DHT22;13914;48.178;11.716;2022-11-11T15:39:15;12.20;95.70
26164;DHT22;13914;48.178;11.716;2022-11-11T15:41:43;12.10;95.70
26164;DHT22;13914;48.178;11.716;2022-11-11T15:44:22;12.00;95.60
26164;DHT22;13914;48.178;11.716;2022-11-11T15:46:50;12.00;95.60
26164;DHT22;13914;48.178;11.716;2022-11-11T15:54:50;11.90;95.60
26164;DHT22;13914;48.178;11.716;2022-11-11T15:57:32;11.80;95.50
26164;DHT22;13914;48.178;11.716;2022-11-11T16:00:00;11.70;95.60
26164;DHT22;13914;48.178;11.716;2022-11-11T16:02:31;11.70;95.70
26164;DHT22;13914;48.178;11.716;2022-11-11T16:05:00;11.70;95.80
26164;DHT22;13914;48.178;11.716;2022-11-11T16:07:29;11.60;95.80
26164;DHT22;13914;48.178;11.716;2022-11-11T16:10:03;11.50;95.70
26164;DHT22;13914;48.178;11.716;2022-11-11T16:12:37;11.50;95.70
26164;DHT22;13914;48.178;11.716;2022-11-11T16:18:12;11.40;95.80
26164;DHT22;13914;48.178;11.716;2022-11-11T16:20:44;11.30;95.70
26164;DHT22;13914;48.178;11.716;2022-11-11T16:23:15;11.30;95.70
26164;DHT22;13914;48.178;11.716;2022-11-11T16:25:41;11.20;95.70
26164;DHT22;13914;48.178;11.716;2022-11-11T16:28:09;11.20;95.60
26164;DHT22;13914;48.178;11.716;2022-11-11T16:30:36;11.10;95.70
26164;DHT22;13914;48.178;11.716;2022-11-11T16:33:02;11.10;95.90
26164;DHT22;13914;48.178;11.716;2022-11-11T16:35:30;11.00;95.90
26164;DHT22;13914;48.178;11.716;2022-11-11T16:37:59;11.00;95.90
26164;DHT22;13914;48.178;11.716;2022-11-11T16:51:04;10.70;95.90
26164;DHT22;13914;48.178;11.716;2022-11-11T16:53:32;10.60;95.70
26164;DHT22;13914;48.178;11.716;2022-11-11T16:56:00;10.60;95.80
26164;DHT22;13914;48.178;11.716;2022-11-11T16:58:26;10.50;95.80
26164;DHT22;13914;48.178;11.716;2022-11-11T17:01:02;10.50;95.80
26164;DHT22;13914;48.178;11.716;2022-11-11T17:03:28;10.40;95.90
26164;DHT22;13914;48.178;11.716;2022-11-11T17:05:55;10.40;95.90
26164;DHT22;13914;48.178;11.716;2022-11-11T17:08:38;10.40;96.00
26164;DHT22;13914;48.178;11.716;2022-11-11T17:11:07;10.30;96.00
26164;DHT22;13914;48.178;11.716;2022-11-11T17:13:36;10.20;96.00
26164;DHT22;13914;48.178;11.716;2022-11-11T17:16:03;10.20;95.90
26164;DHT22;13914;48.178;11.716;2022-11-11T17:18:32;10.10;96.00
26164;DHT22;13914;48.178;11.716;2022-11-11T17:20:59;10.10;96.10
26164;DHT22;13914;48.178;11.716;2022-11-11T17:23:26;10.00;96.00
26164;DHT22;13914;48.178;11.716;2022-11-11T17:25:55;10.00;96.10
26164;DHT22;13914;48.178;11.716;2022-11-11T17:28:22;9.90;96.10
26164;DHT22;13914;48.178;11.716;2022-11-11T17:30:48;9.90;96.10
26164;DHT22;13914;48.178;11.716;2022-11-11T17:33:13;9.80;96.10
26164;DHT22;13914;48.178;11.716;2022-11-11T17:35:39;9.80;96.20
26164;DHT22;13914;48.178;11.716;2022-11-11T17:38:14;9.70;96.20
26164;DHT22;13914;48.178;11.716;2022-11-11T17:40:43;9.70;96.10
26164;DHT22;13914;48.178;11.716;2022-11-11T17:43:10;9.60;96.10
26164;DHT22;13914;48.178;11.716;2022-11-11T17:45:35;9.60;96.10
26164;DHT22;13914;48.178;11.716;2022-11-11T17:48:01;9.50;96.20
26164;DHT22;13914;48.178;11.716;2022-11-11T17:50:27;9.50;96.20
26164;DHT22;13914;48.178;11.716;2022-11-11T17:52:55;9.40;96.30
26164;DHT22;13914;48.178;11.716;2022-11-11T17:55:21;9.40;96.30
26164;DHT22;13914;48.178;11.716;2022-11-11T17:57:48;9.30;96.30
26164;DHT22;13914;48.178;11.716;2022-11-11T18:00:14;9.30;96.40
26164;DHT22;13914;48.178;11.716;2022-11-11T18:02:40;9.20;96.40
26164;DHT22;13914;48.178;11.716;2022-11-11T18:05:06;9.20;96.40
26164;DHT22;13914;48.178;11.716;2022-11-11T18:07:32;9.20;96.40
26164;DHT22;13914;48.178;11.716;2022-11-11T18:09:58;9.10;96.50
26164;DHT22;13914;48.178;11.716;2022-11-11T18:12:23;9.10;96.40
26164;DHT22;13914;48.178;11.716;2022-11-11T18:14:49;9.10;96.50
26164;DHT22;13914;48.178;11.716;2022-11-11T18:17:15;9.00;96.50
26164;DHT22;13914;48.178;11.716;2022-11-11T18:19:40;9.00;96.50
26164;DHT22;13914;48.178;11.716;2022-11-11T18:22:06;8.90;96.40